Moose 62 — CGCZ — position and weather

sailwx.info

Track history (hours):
 
Tides and Currents Weather Stations Pressure Air Temp Water Temp Dewpoint Dewpoint Depression Visibility Wind Speed Wind Dir Waves Ship Positions

Moose 62

Last reported at 2014-Jul-24 18:08 UTC. Time now 2014-Jul-24 19:18 UTC.
Position N 48°26' W 123°26'.

; draft 2.6 m.

Type: Military. MMSI: 316013412.

Date/timePositionNaut miles runAvg speedWind from/ knotsBaromVisibWave heightAir tempDewpointWater temp
2014-Jul-24 18:08N 48°26' W 123°26'0 0.0
2014-Jul-24 17:29N 48°26' W 123°26'0 0.0
2014-Jul-24 16:33N 48°26' W 123°26'0 0.0
2014-Jul-24 15:18N 48°26' W 123°26'0 0.0
2014-Jul-24 14:24N 48°26' W 123°26'0 0.0
2014-Jul-24 13:27N 48°26' W 123°26'0 0.0
2014-Jul-24 12:30N 48°26' W 123°26'0 0.0
2014-Jul-23 19:10N 48°26' W 123°26'0 0.0
2014-Jul-23 17:30N 48°26' W 123°26'0 0.0
2014-Jul-23 16:29N 48°26' W 123°26'0 0.0
2014-Jul-23 15:29N 48°26' W 123°26'0 0.0
2014-Jul-23 14:29N 48°26' W 123°26'0 0.0
2014-Jul-23 13:32N 48°26' W 123°26'0 0.0
2014-Jul-23 12:32N 48°26' W 123°26'0 0.0
2014-Jul-23 04:32N 48°26' W 123°26'0 0.0
2014-Jul-23 03:16N 48°26' W 123°26'0 0.0
2014-Jul-23 02:30N 48°26' W 123°26'0 0.0
2014-Jul-23 01:33N 48°26' W 123°26'0 0.0
2014-Jul-23 00:31N 48°26' W 123°26'0 0.0
2014-Jul-22 23:19N 48°26' W 123°26'0 0.0
2014-Jul-22 21:24N 48°26' W 123°26'0 0.0
2014-Jul-22 20:27N 48°26' W 123°26'0 0.0
2014-Jul-22 16:21N 48°26' W 123°26'0 0.0
2014-Jul-22 15:24N 48°26' W 123°26'0 0.0
2014-Jul-22 14:32N 48°26' W 123°26'0 0.0
2014-Jul-22 13:20N 48°26' W 123°26'0 0.0
2014-Jul-22 12:23N 48°26' W 123°26'0 0.0
2014-Jul-22 04:33N 48°26' W 123°26'0 0.0
2014-Jul-22 03:24N 48°26' W 123°26'0 0.0
2014-Jul-21 15:33N 48°26' W 123°26'0 0.0
2014-Jul-21 09:28N 48°26' W 123°26'0 0.0
2014-Jul-21 08:28N 48°26' W 123°26'0 0.0
2014-Jul-21 07:28N 48°26' W 123°26'0 0.0
2014-Jul-21 06:28N 48°26' W 123°26'0 0.0
2014-Jul-21 04:28N 48°26' W 123°26'0 0.0
2014-Jul-21 03:04N 48°26' W 123°26'0 0.0
2014-Jul-21 02:28N 48°26' W 123°26'0 0.0
2014-Jul-21 01:28N 48°26' W 123°26'0 0.0
2014-Jul-20 20:30N 48°26' W 123°26'0 0.0
2014-Jul-20 13:25N 48°26' W 123°26'0 0.0
2014-Jul-20 06:26N 48°26' W 123°26'0 0.0
2014-Jul-20 05:26N 48°26' W 123°26'0 0.0
2014-Jul-20 04:23N 48°26' W 123°26'0 0.0
2014-Jul-20 03:30N 48°26' W 123°26'0 0.0
2014-Jul-20 02:33N 48°26' W 123°26'0 0.0
2014-Jul-20 01:12N 48°26' W 123°26'0 0.0
2014-Jul-20 00:07N 48°26' W 123°26'0 0.0
2014-Jul-19 22:31N 48°26' W 123°26'0 0.0
2014-Jul-19 21:13N 48°26' W 123°26'0 0.0
2014-Jul-19 20:22N 48°26' W 123°26'0 0.0
2014-Jul-19 19:31N 48°26' W 123°26'0 0.0
2014-Jul-19 18:31N 48°26' W 123°26'0 0.0
2014-Jul-19 12:13N 48°26' W 123°26'0 0.0
2014-Jul-19 11:25N 48°26' W 123°26'0 0.0
2014-Jul-19 10:30N 48°26' W 123°26'0 0.0
2014-Jul-19 05:26N 48°26' W 123°26'0 0.0
2014-Jul-19 04:29N 48°26' W 123°26'0 0.0
2014-Jul-19 03:29N 48°26' W 123°26'0 0.0
2014-Jul-19 00:33N 48°26' W 123°26'0 0.0
2014-Jul-18 22:05N 48°26' W 123°26'0 0.0
2014-Jul-18 21:32N 48°26' W 123°26'0 0.0
2014-Jul-18 20:32N 48°26' W 123°26'0 0.0
2014-Jul-18 19:26N 48°26' W 123°26'0 0.0
2014-Jul-18 03:22N 48°26' W 123°26'0 0.0
2014-Jul-18 02:33N 48°26' W 123°26'0 0.0
2014-Jul-17 21:12N 48°26' W 123°26'0 0.0
2014-Jul-17 20:12N 48°26' W 123°26'0 0.0
2014-Jul-17 19:24N 48°26' W 123°26'0 0.0
2014-Jul-17 18:07N 48°26' W 123°26'3 5.1
2014-Jul-17 17:33N 48°23' W 123°24'8 8.2
2014-Jul-17 16:33N 48°26' W 123°12'10 9.8
2014-Jul-17 15:33N 48°36' W 123°14'9 8.5
2014-Jul-17 14:32N 48°42' W 123°22'8 8.1
2014-Jul-17 13:33N 48°50' W 123°21'10 9.8
2014-Jul-17 12:32N 48°57' W 123°33'9 8.9
2014-Jul-17 11:33N 49°05' W 123°35'1212.3
2014-Jul-17 10:34N 49°16' W 123°26'9 8.9
2014-Jul-17 09:33N 49°25' W 123°24'7 6.8
2014-Jul-17 08:33N 49°32' W 123°20'5 4.6
2014-Jul-17 07:33N 49°28' W 123°17'8 8.5
2014-Jul-17 06:33N 49°19' W 123°16'6 5.6
2014-Jul-17 05:31N 49°18' W 123°07'0 0.0
2014-Jul-17 04:33N 49°18' W 123°07'2 2.1
2014-Jul-17 03:34N 49°19' W 123°09'1010.0
2014-Jul-17 02:33N 49°25' W 123°21'3 3.3
2014-Jul-17 01:33N 49°29' W 123°23'0 0.0
2014-Jul-17 00:27N 49°29' W 123°23'0 0.0
2014-Jul-16 23:33N 49°29' W 123°23'0 0.2
2014-Jul-16 22:33N 49°28' W 123°23'3 2.9
2014-Jul-16 21:33N 49°30' W 123°19'5 5.1
2014-Jul-16 20:33N 49°35' W 123°15'4 4.4
2014-Jul-16 19:33N 49°39' W 123°15'5 5.2
2014-Jul-16 18:33N 49°34' W 123°15'7 6.6
2014-Jul-16 17:33N 49°27' W 123°16'5 5.4
2014-Jul-16 16:33N 49°22' W 123°18'1312.5
2014-Jul-16 15:33N 49°10' W 123°20'1010.4
2014-Jul-16 14:34N 49°03' W 123°31'1010.3
2014-Jul-16 13:33N 49°12' W 123°39'1111.0
2014-Jul-16 12:33N 49°18' W 123°53'1110.6
2014-Jul-16 11:33N 49°26' W 124°03'1010.1
2014-Jul-16 10:33N 49°35' W 124°10'1110.5
2014-Jul-16 09:33N 49°43' W 124°21'1010.4
2014-Jul-16 08:33N 49°48' W 124°35'1010.5
2014-Jul-16 07:33N 49°51' W 124°50'14 6.8
2014-Jul-16 05:30N 50°01' W 125°06'5 4.8
2014-Jul-16 04:30N 50°02' W 125°14'8 8.9
2014-Jul-16 03:33N 50°09' W 125°21'9 9.4
2014-Jul-16 02:33N 50°18' W 125°25'29 9.4
2014-Jul-15 23:25N 50°28' W 126°09'8 8.9
2014-Jul-15 22:33N 50°30' W 126°21'1211.9
2014-Jul-15 21:33N 50°31' W 126°39'1 0.7
2014-Jul-15 20:31N 50°31' W 126°38'1212.0
2014-Jul-15 19:29N 50°30' W 126°19'3910.0
2014-Jul-15 15:32N 50°13' W 125°23'1411.2
2014-Jul-15 14:15N 50°01' W 125°12'6 8.6
2014-Jul-15 13:33N 49°59' W 125°03'9 8.8
2014-Jul-15 12:33N 49°59' W 124°50'1010.1
2014-Jul-15 11:33N 49°53' W 124°37'1010.3
2014-Jul-15 10:33N 49°45' W 124°26'1111.4
2014-Jul-15 09:33N 49°39' W 124°12'1211.9
2014-Jul-15 08:33N 49°31' W 123°58'1211.8
2014-Jul-15 07:33N 49°21' W 123°47'1612.1
2014-Jul-15 06:15N 49°10' W 123°30'1311.2
2014-Jul-15 05:05N 49°01' W 123°15'1710.4
2014-Jul-15 03:29N 48°48' W 122°59'1410.3
2014-Jul-15 02:07N 48°38' W 123°14'712.2
2014-Jul-15 01:33N 48°31' W 123°12'13 5.8
2014-Jul-14 23:22N 48°24' W 123°28'1 1.0
2014-Jul-14 22:33N 48°25' W 123°27'1 0.9
2014-Jul-14 21:08N 48°26' W 123°26'3 5.5
2014-Jul-14 20:33N 48°23' W 123°25'7 7.1
2014-Jul-14 19:33N 48°24' W 123°15'1010.4
2014-Jul-14 18:33N 48°34' W 123°18'  
Track history (hours):
 
Tides and Currents Weather Stations Pressure Air Temp Water Temp Dewpoint Dewpoint Depression Visibility Wind Speed Wind Dir Waves Ship Positions

Moose 62

Last reported at 2014-Jul-24 18:08 UTC. Time now 2014-Jul-24 19:18 UTC.
Position N 48°26' W 123°26'.

; draft 2.6 m.

Type: Military. MMSI: 316013412.

Date/timePositionNaut miles runAvg speedWind from/ knotsBaromVisibWave heightAir tempDewpointWater temp
2014-Jul-24 18:08N 48°26' W 123°26'0 0.0
2014-Jul-24 17:29N 48°26' W 123°26'0 0.0
2014-Jul-24 16:33N 48°26' W 123°26'0 0.0
2014-Jul-24 15:18N 48°26' W 123°26'0 0.0
2014-Jul-24 14:24N 48°26' W 123°26'0 0.0
2014-Jul-24 13:27N 48°26' W 123°26'0 0.0
2014-Jul-24 12:30N 48°26' W 123°26'0 0.0
2014-Jul-23 19:10N 48°26' W 123°26'0 0.0
2014-Jul-23 17:30N 48°26' W 123°26'0 0.0
2014-Jul-23 16:29N 48°26' W 123°26'0 0.0
2014-Jul-23 15:29N 48°26' W 123°26'0 0.0
2014-Jul-23 14:29N 48°26' W 123°26'0 0.0
2014-Jul-23 13:32N 48°26' W 123°26'0 0.0
2014-Jul-23 12:32N 48°26' W 123°26'0 0.0
2014-Jul-23 04:32N 48°26' W 123°26'0 0.0
2014-Jul-23 03:16N 48°26' W 123°26'0 0.0
2014-Jul-23 02:30N 48°26' W 123°26'0 0.0
2014-Jul-23 01:33N 48°26' W 123°26'0 0.0
2014-Jul-23 00:31N 48°26' W 123°26'0 0.0
2014-Jul-22 23:19N 48°26' W 123°26'0 0.0
2014-Jul-22 21:24N 48°26' W 123°26'0 0.0
2014-Jul-22 20:27N 48°26' W 123°26'0 0.0
2014-Jul-22 16:21N 48°26' W 123°26'0 0.0
2014-Jul-22 15:24N 48°26' W 123°26'0 0.0
2014-Jul-22 14:32N 48°26' W 123°26'0 0.0
2014-Jul-22 13:20N 48°26' W 123°26'0 0.0
2014-Jul-22 12:23N 48°26' W 123°26'0 0.0
2014-Jul-22 04:33N 48°26' W 123°26'0 0.0
2014-Jul-22 03:24N 48°26' W 123°26'0 0.0
2014-Jul-21 15:33N 48°26' W 123°26'0 0.0
2014-Jul-21 09:28N 48°26' W 123°26'0 0.0
2014-Jul-21 08:28N 48°26' W 123°26'0 0.0
2014-Jul-21 07:28N 48°26' W 123°26'0 0.0
2014-Jul-21 06:28N 48°26' W 123°26'0 0.0
2014-Jul-21 04:28N 48°26' W 123°26'0 0.0
2014-Jul-21 03:04N 48°26' W 123°26'0 0.0
2014-Jul-21 02:28N 48°26' W 123°26'0 0.0
2014-Jul-21 01:28N 48°26' W 123°26'0 0.0
2014-Jul-20 20:30N 48°26' W 123°26'0 0.0
2014-Jul-20 13:25N 48°26' W 123°26'0 0.0
2014-Jul-20 06:26N 48°26' W 123°26'0 0.0
2014-Jul-20 05:26N 48°26' W 123°26'0 0.0
2014-Jul-20 04:23N 48°26' W 123°26'0 0.0
2014-Jul-20 03:30N 48°26' W 123°26'0 0.0
2014-Jul-20 02:33N 48°26' W 123°26'0 0.0
2014-Jul-20 01:12N 48°26' W 123°26'0 0.0
2014-Jul-20 00:07N 48°26' W 123°26'0 0.0
2014-Jul-19 22:31N 48°26' W 123°26'0 0.0
2014-Jul-19 21:13N 48°26' W 123°26'0 0.0
2014-Jul-19 20:22N 48°26' W 123°26'0 0.0
2014-Jul-19 19:31N 48°26' W 123°26'0 0.0
2014-Jul-19 18:31N 48°26' W 123°26'0 0.0
2014-Jul-19 12:13N 48°26' W 123°26'0 0.0
2014-Jul-19 11:25N 48°26' W 123°26'0 0.0
2014-Jul-19 10:30N 48°26' W 123°26'0 0.0
2014-Jul-19 05:26N 48°26' W 123°26'0 0.0
2014-Jul-19 04:29N 48°26' W 123°26'0 0.0
2014-Jul-19 03:29N 48°26' W 123°26'0 0.0
2014-Jul-19 00:33N 48°26' W 123°26'0 0.0
2014-Jul-18 22:05N 48°26' W 123°26'0 0.0
2014-Jul-18 21:32N 48°26' W 123°26'0 0.0
2014-Jul-18 20:32N 48°26' W 123°26'0 0.0
2014-Jul-18 19:26N 48°26' W 123°26'0 0.0
2014-Jul-18 03:22N 48°26' W 123°26'0 0.0
2014-Jul-18 02:33N 48°26' W 123°26'0 0.0
2014-Jul-17 21:12N 48°26' W 123°26'0 0.0
2014-Jul-17 20:12N 48°26' W 123°26'0 0.0
2014-Jul-17 19:24N 48°26' W 123°26'0 0.0
2014-Jul-17 18:07N 48°26' W 123°26'3 5.1
2014-Jul-17 17:33N 48°23' W 123°24'8 8.2
2014-Jul-17 16:33N 48°26' W 123°12'10 9.8
2014-Jul-17 15:33N 48°36' W 123°14'9 8.5
2014-Jul-17 14:32N 48°42' W 123°22'8 8.1
2014-Jul-17 13:33N 48°50' W 123°21'10 9.8
2014-Jul-17 12:32N 48°57' W 123°33'9 8.9
2014-Jul-17 11:33N 49°05' W 123°35'1212.3
2014-Jul-17 10:34N 49°16' W 123°26'9 8.9
2014-Jul-17 09:33N 49°25' W 123°24'7 6.8
2014-Jul-17 08:33N 49°32' W 123°20'5 4.6
2014-Jul-17 07:33N 49°28' W 123°17'8 8.5
2014-Jul-17 06:33N 49°19' W 123°16'6 5.6
2014-Jul-17 05:31N 49°18' W 123°07'0 0.0
2014-Jul-17 04:33N 49°18' W 123°07'2 2.1
2014-Jul-17 03:34N 49°19' W 123°09'1010.0
2014-Jul-17 02:33N 49°25' W 123°21'3 3.3
2014-Jul-17 01:33N 49°29' W 123°23'0 0.0
2014-Jul-17 00:27N 49°29' W 123°23'0 0.0
2014-Jul-16 23:33N 49°29' W 123°23'0 0.2
2014-Jul-16 22:33N 49°28' W 123°23'3 2.9
2014-Jul-16 21:33N 49°30' W 123°19'5 5.1
2014-Jul-16 20:33N 49°35' W 123°15'4 4.4
2014-Jul-16 19:33N 49°39' W 123°15'5 5.2
2014-Jul-16 18:33N 49°34' W 123°15'7 6.6
2014-Jul-16 17:33N 49°27' W 123°16'5 5.4
2014-Jul-16 16:33N 49°22' W 123°18'1312.5
2014-Jul-16 15:33N 49°10' W 123°20'1010.4
2014-Jul-16 14:34N 49°03' W 123°31'1010.3
2014-Jul-16 13:33N 49°12' W 123°39'1111.0
2014-Jul-16 12:33N 49°18' W 123°53'1110.6
2014-Jul-16 11:33N 49°26' W 124°03'1010.1
2014-Jul-16 10:33N 49°35' W 124°10'1110.5
2014-Jul-16 09:33N 49°43' W 124°21'1010.4
2014-Jul-16 08:33N 49°48' W 124°35'1010.5
2014-Jul-16 07:33N 49°51' W 124°50'14 6.8
2014-Jul-16 05:30N 50°01' W 125°06'5 4.8
2014-Jul-16 04:30N 50°02' W 125°14'8 8.9
2014-Jul-16 03:33N 50°09' W 125°21'9 9.4
2014-Jul-16 02:33N 50°18' W 125°25'29 9.4
2014-Jul-15 23:25N 50°28' W 126°09'8 8.9
2014-Jul-15 22:33N 50°30' W 126°21'1211.9
2014-Jul-15 21:33N 50°31' W 126°39'1 0.7
2014-Jul-15 20:31N 50°31' W 126°38'1212.0
2014-Jul-15 19:29N 50°30' W 126°19'3910.0
2014-Jul-15 15:32N 50°13' W 125°23'1411.2
2014-Jul-15 14:15N 50°01' W 125°12'6 8.6
2014-Jul-15 13:33N 49°59' W 125°03'9 8.8
2014-Jul-15 12:33N 49°59' W 124°50'1010.1
2014-Jul-15 11:33N 49°53' W 124°37'1010.3
2014-Jul-15 10:33N 49°45' W 124°26'1111.4
2014-Jul-15 09:33N 49°39' W 124°12'1211.9
2014-Jul-15 08:33N 49°31' W 123°58'1211.8
2014-Jul-15 07:33N 49°21' W 123°47'1612.1
2014-Jul-15 06:15N 49°10' W 123°30'1311.2
2014-Jul-15 05:05N 49°01' W 123°15'1710.4
2014-Jul-15 03:29N 48°48' W 122°59'1410.3
2014-Jul-15 02:07N 48°38' W 123°14'712.2
2014-Jul-15 01:33N 48°31' W 123°12'13 5.8
2014-Jul-14 23:22N 48°24' W 123°28'1 1.0
2014-Jul-14 22:33N 48°25' W 123°27'1 0.9
2014-Jul-14 21:08N 48°26' W 123°26'3 5.5
2014-Jul-14 20:33N 48°23' W 123°25'7 7.1
2014-Jul-14 19:33N 48°24' W 123°15'1010.4
2014-Jul-14 18:33N 48°34' W 123°18'  

Dump ship's entire track history